createdAt,value
2018-07-24T00:00:04.830Z,50.20
2018-07-24T00:02:33.468Z,49.99
2018-07-24T00:05:02.037Z,50.42
2018-07-24T00:07:30.673Z,50.15
2018-07-24T00:10:00.487Z,49.81
2018-07-24T00:12:29.529Z,50.48
2018-07-24T00:14:58.147Z,50.01
2018-07-24T00:17:26.787Z,50.72
2018-07-24T00:19:55.398Z,50.04
2018-07-24T00:22:24.011Z,50.18
2018-07-24T00:24:52.666Z,49.99
2018-07-24T00:27:21.251Z,50.75
2018-07-24T00:29:49.993Z,50.84
2018-07-24T00:32:18.584Z,50.38
2018-07-24T00:34:47.076Z,51.01
2018-07-24T00:37:15.749Z,50.53
2018-07-24T00:39:44.368Z,51.60
2018-07-24T00:42:12.819Z,51.43
2018-07-24T00:44:41.342Z,51.83
2018-07-24T00:47:09.811Z,51.69
2018-07-24T00:49:38.463Z,51.78
2018-07-24T00:52:07.211Z,51.20
2018-07-24T00:54:35.698Z,50.83
2018-07-24T00:57:04.267Z,51.36
2018-07-24T00:59:32.888Z,51.67
2018-07-24T01:02:01.496Z,52.12
2018-07-24T01:04:29.982Z,51.51
2018-07-24T01:06:58.607Z,52.02
2018-07-24T01:09:27.195Z,51.79
2018-07-24T01:11:55.753Z,51.61
2018-07-24T01:14:24.319Z,52.06
2018-07-24T01:16:52.847Z,51.30
2018-07-24T01:19:21.335Z,52.17
2018-07-24T01:21:49.927Z,51.51
2018-07-24T01:24:18.381Z,51.69
2018-07-24T01:26:46.955Z,51.99
2018-07-24T01:29:15.515Z,52.11
2018-07-24T01:31:44.051Z,52.14
2018-07-24T01:34:12.697Z,52.75
2018-07-24T01:36:41.201Z,52.00
2018-07-24T01:39:11.028Z,52.05
2018-07-24T01:41:39.764Z,52.20
2018-07-24T01:44:08.406Z,51.91
2018-07-24T01:46:36.881Z,52.17
2018-07-24T01:49:05.496Z,52.64
2018-07-24T01:51:34.153Z,52.14
2018-07-24T01:54:02.670Z,52.16
2018-07-24T01:56:31.272Z,53.09
2018-07-24T01:58:59.795Z,53.23
2018-07-24T02:01:28.382Z,52.92
2018-07-24T02:03:56.863Z,52.71
2018-07-24T02:06:25.403Z,53.41
2018-07-24T02:08:53.989Z,53.42
2018-07-24T02:11:22.656Z,53.46
2018-07-24T02:13:51.221Z,53.38
2018-07-24T02:16:19.788Z,53.46
2018-07-24T02:18:48.431Z,53.82
2018-07-24T02:21:16.966Z,53.27
2018-07-24T02:23:45.444Z,53.19
2018-07-24T02:26:14.035Z,53.45
2018-07-24T02:28:42.595Z,53.44
2018-07-24T02:31:11.202Z,53.92
2018-07-24T02:33:39.757Z,53.92
2018-07-24T02:36:08.372Z,53.54
2018-07-24T02:38:36.901Z,54.24
2018-07-24T02:41:05.528Z,53.59
2018-07-24T02:43:34.066Z,53.70
2018-07-24T02:46:02.552Z,53.36
2018-07-24T02:48:31.086Z,53.56
2018-07-24T02:50:59.654Z,53.66
2018-07-24T02:53:28.332Z,53.42
2018-07-24T02:55:56.917Z,54.05
2018-07-24T02:58:25.376Z,54.00
2018-07-24T03:00:53.976Z,53.62
2018-07-24T03:03:22.510Z,54.24
2018-07-24T03:05:51.055Z,54.21
2018-07-24T03:08:19.588Z,54.08
2018-07-24T03:10:48.628Z,54.44
2018-07-24T03:13:17.746Z,54.57
2018-07-24T03:15:46.281Z,54.32
2018-07-24T03:18:14.798Z,53.86
2018-07-24T03:20:43.284Z,54.31
2018-07-24T03:23:11.868Z,54.96
2018-07-24T03:25:42.289Z,54.14
2018-07-24T03:28:10.830Z,54.57
2018-07-24T03:30:39.362Z,54.80
2018-07-24T03:33:07.920Z,54.27
2018-07-24T03:35:36.404Z,54.69
2018-07-24T03:38:04.955Z,54.94
2018-07-24T03:40:33.395Z,54.99
2018-07-24T03:43:01.902Z,55.14
2018-07-24T03:45:30.463Z,55.02
2018-07-24T03:47:59.028Z,54.48
2018-07-24T03:50:27.564Z,54.93
2018-07-24T03:52:56.079Z,55.01
2018-07-24T03:55:24.555Z,55.44
2018-07-24T03:57:53.122Z,55.00
2018-07-24T04:00:21.715Z,55.13
2018-07-24T04:02:50.261Z,55.13
2018-07-24T04:05:18.914Z,55.18
2018-07-24T04:07:50.498Z,54.86
2018-07-24T04:10:20.119Z,54.84
2018-07-24T04:12:48.781Z,55.27
2018-07-24T04:15:17.886Z,54.48
2018-07-24T04:17:46.482Z,55.08
2018-07-24T04:20:14.977Z,54.69
2018-07-24T04:22:43.534Z,55.09
2018-07-24T04:25:12.057Z,54.77
2018-07-24T04:27:40.659Z,54.41
2018-07-24T04:30:09.390Z,54.00
2018-07-24T04:32:39.360Z,54.98
2018-07-24T04:35:07.960Z,54.34
2018-07-24T04:37:36.681Z,54.34
2018-07-24T04:40:05.700Z,53.91
2018-07-24T04:42:34.212Z,54.35
2018-07-24T04:45:02.790Z,54.54
2018-07-24T04:47:31.347Z,54.16
2018-07-24T04:49:59.857Z,54.00
2018-07-24T04:52:28.409Z,54.33
2018-07-24T04:54:56.975Z,54.38
2018-07-24T04:57:25.566Z,54.14
2018-07-24T04:59:54.249Z,53.87
2018-07-24T05:02:22.977Z,53.97
2018-07-24T05:04:51.580Z,54.54
2018-07-24T05:07:20.246Z,54.11
2018-07-24T05:09:48.828Z,54.37
2018-07-24T05:12:17.334Z,54.51
2018-07-24T05:14:45.837Z,53.20
2018-07-24T05:17:14.367Z,52.75
2018-07-24T05:19:43.515Z,53.48
2018-07-24T05:22:12.025Z,52.93
2018-07-24T05:24:40.586Z,53.00
2018-07-24T05:27:09.524Z,53.41
2018-07-24T05:29:38.046Z,53.81
2018-07-24T05:32:06.878Z,53.40
2018-07-24T05:34:35.439Z,52.85
2018-07-24T05:37:04.007Z,52.88
2018-07-24T05:39:32.746Z,52.97
2018-07-24T05:42:01.395Z,51.25
2018-07-24T05:44:30.365Z,50.95
2018-07-24T05:46:58.906Z,50.25
2018-07-24T05:49:27.567Z,49.93
2018-07-24T05:51:56.100Z,50.53
2018-07-24T05:54:25.035Z,49.78
2018-07-24T05:56:53.697Z,49.15
2018-07-24T05:59:22.523Z,48.39
2018-07-24T06:01:51.205Z,47.61
2018-07-24T06:04:19.886Z,47.84
2018-07-24T06:06:48.560Z,45.50
2018-07-24T06:09:17.194Z,45.43
2018-07-24T06:11:45.740Z,44.23
2018-07-24T06:14:14.339Z,43.11
2018-07-24T06:16:42.946Z,41.09
2018-07-24T06:19:11.495Z,41.22
2018-07-24T06:21:40.092Z,41.02
2018-07-24T06:24:09.029Z,39.84
2018-07-24T06:26:37.666Z,38.17
2018-07-24T06:29:06.193Z,37.86
2018-07-24T06:31:34.686Z,37.72
2018-07-24T06:34:03.247Z,36.05
2018-07-24T06:36:31.775Z,34.90
2018-07-24T06:39:00.380Z,33.87
2018-07-24T06:41:28.998Z,33.83
2018-07-24T06:43:57.484Z,34.00
2018-07-24T06:46:26.013Z,32.72
2018-07-24T06:48:54.506Z,32.66
2018-07-24T06:51:22.993Z,32.71
2018-07-24T06:53:51.500Z,31.71
2018-07-24T06:56:19.997Z,31.84
2018-07-24T06:58:48.500Z,30.62
2018-07-24T07:01:16.950Z,31.40
2018-07-24T07:03:45.399Z,29.25
2018-07-24T07:06:13.922Z,28.81
2018-07-24T07:08:42.402Z,28.00
2018-07-24T07:11:10.868Z,29.11
2018-07-24T07:13:39.323Z,28.01
2018-07-24T07:16:07.875Z,27.02
2018-07-24T07:18:36.387Z,26.62
2018-07-24T07:21:04.856Z,26.84
2018-07-24T07:23:33.442Z,27.04
2018-07-24T07:26:02.017Z,26.10
2018-07-24T07:28:30.531Z,25.52
2018-07-24T07:30:59.178Z,25.58
2018-07-24T07:33:27.675Z,24.70
2018-07-24T07:35:56.186Z,23.41
2018-07-24T07:38:24.880Z,23.23
2018-07-24T07:40:53.376Z,23.30
2018-07-24T07:43:21.899Z,22.68
2018-07-24T07:45:50.615Z,22.47
2018-07-24T07:48:19.071Z,21.40
2018-07-24T07:50:47.523Z,20.18
2018-07-24T07:53:16.145Z,20.30
2018-07-24T07:55:44.873Z,19.16
2018-07-24T07:58:13.587Z,19.59
2018-07-24T08:00:42.073Z,19.01
2018-07-24T08:03:10.598Z,19.26
2018-07-24T08:05:39.089Z,19.43
2018-07-24T08:08:07.592Z,18.31
2018-07-24T08:10:36.152Z,17.47
2018-07-24T08:13:04.689Z,16.54
2018-07-24T08:15:34.259Z,16.07
2018-07-24T08:18:02.892Z,16.06
2018-07-24T08:20:31.547Z,14.82
2018-07-24T08:23:00.046Z,15.58
2018-07-24T08:25:28.613Z,15.31
2018-07-24T08:27:57.112Z,15.26
2018-07-24T08:30:25.635Z,15.20
2018-07-24T08:32:54.377Z,15.33
2018-07-24T08:35:22.900Z,14.05
2018-07-24T08:37:51.381Z,14.03
2018-07-24T08:40:19.857Z,14.01
2018-07-24T08:42:49.269Z,13.17
2018-07-24T08:45:19.504Z,12.89
2018-07-24T08:47:48.040Z,12.49
2018-07-24T08:50:16.596Z,13.00
2018-07-24T08:52:45.183Z,13.74
2018-07-24T08:55:14.206Z,13.27
2018-07-24T08:57:42.479Z,14.05
2018-07-24T09:00:11.014Z,12.85
2018-07-24T09:02:39.580Z,12.35
2018-07-24T09:05:09.231Z,12.81
2018-07-24T09:07:43.485Z,13.37
2018-07-24T09:10:12.289Z,13.03
2018-07-24T09:15:26.274Z,12.28
2018-07-24T09:17:56.028Z,11.60
2018-07-24T09:20:25.517Z,11.56
2018-07-24T09:22:55.682Z,11.51
2018-07-24T09:28:47.972Z,11.34
2018-07-24T09:31:22.178Z,11.01
2018-07-24T09:33:59.949Z,12.03
2018-07-24T09:36:48.306Z,10.58
2018-07-24T09:39:28.204Z,9.82
2018-07-24T09:48:50.860Z,11.21
2018-07-24T09:51:36.117Z,9.33
2018-07-24T09:54:15.593Z,9.90
2018-07-24T09:56:54.871Z,8.89
2018-07-24T10:00:14.395Z,9.29
2018-07-24T10:03:05.345Z,8.79
2018-07-24T10:05:51.993Z,8.30
2018-07-24T10:08:40.934Z,7.86
2018-07-24T10:11:12.793Z,8.40
2018-07-24T10:13:47.219Z,8.20
2018-07-24T10:16:33.565Z,8.86
2018-07-24T10:21:53.055Z,9.01
2018-07-24T10:24:27.281Z,7.73
2018-07-24T10:26:57.258Z,7.90
2018-07-24T10:29:26.995Z,8.15
2018-07-24T10:31:57.477Z,7.97
2018-07-24T10:34:29.601Z,8.13
2018-07-24T10:37:01.505Z,7.95
2018-07-24T10:39:37.578Z,7.41
2018-07-24T10:42:07.286Z,7.01
2018-07-24T10:44:39.678Z,6.96
2018-07-24T10:47:40.464Z,6.82
2018-07-24T10:50:13.217Z,6.47
2018-07-24T10:52:46.106Z,6.00
2018-07-24T10:55:14.662Z,5.64
2018-07-24T10:57:48.077Z,5.68
2018-07-24T11:00:18.372Z,5.77
2018-07-24T11:02:46.957Z,6.08
2018-07-24T11:05:15.672Z,5.84
2018-07-24T11:07:44.314Z,5.88
2018-07-24T11:10:12.911Z,5.45
2018-07-24T11:12:41.528Z,5.33
2018-07-24T11:15:10.058Z,5.49
2018-07-24T11:17:38.598Z,5.74
2018-07-24T11:20:07.099Z,6.28
2018-07-24T11:22:35.907Z,5.78
2018-07-24T11:25:04.394Z,6.44
2018-07-24T11:27:33.077Z,6.54
2018-07-24T11:30:01.567Z,6.22
2018-07-24T11:32:30.825Z,6.19
2018-07-24T11:34:59.759Z,7.02
2018-07-24T11:37:28.922Z,7.64
2018-07-24T11:39:58.017Z,7.83
2018-07-24T11:42:27.284Z,8.68
2018-07-24T11:44:58.162Z,9.71
2018-07-24T11:47:27.104Z,9.83
2018-07-24T11:49:56.138Z,10.16
2018-07-24T11:52:25.099Z,10.73
2018-07-24T11:54:54.282Z,11.40
2018-07-24T11:57:23.305Z,12.27
2018-07-24T11:59:52.632Z,12.44
2018-07-24T12:02:21.569Z,13.02
2018-07-24T12:04:50.957Z,13.34
2018-07-24T12:07:19.756Z,13.63
2018-07-24T12:09:48.390Z,13.70
2018-07-24T12:12:17.040Z,14.64
2018-07-24T12:14:45.753Z,14.33
2018-07-24T12:17:14.275Z,14.42
2018-07-24T12:19:42.848Z,14.70
2018-07-24T12:22:11.460Z,14.33
2018-07-24T12:24:39.975Z,14.71
2018-07-24T12:27:08.672Z,15.12
2018-07-24T12:29:37.320Z,15.35
2018-07-24T12:32:06.035Z,15.43
2018-07-24T12:34:34.675Z,15.69
2018-07-24T12:37:03.285Z,15.81
2018-07-24T12:39:31.916Z,16.00
2018-07-24T12:42:00.554Z,16.12
2018-07-24T12:44:29.208Z,16.74
2018-07-24T12:46:57.698Z,16.12
2018-07-24T12:49:26.414Z,16.35
2018-07-24T12:51:54.980Z,16.84
2018-07-24T12:54:23.641Z,17.01
2018-07-24T12:56:52.097Z,16.53
2018-07-24T12:59:20.523Z,16.78
2018-07-24T13:01:49.084Z,16.23
2018-07-24T13:04:17.847Z,16.75
2018-07-24T13:06:46.427Z,16.49
2018-07-24T13:09:14.925Z,16.37
2018-07-24T13:11:43.399Z,16.58
2018-07-24T13:14:11.978Z,16.87
2018-07-24T13:16:40.513Z,16.48
2018-07-24T13:19:09.037Z,16.73
2018-07-24T13:21:37.510Z,16.39
2018-07-24T13:24:06.096Z,17.38
2018-07-24T13:26:34.536Z,16.84
2018-07-24T13:29:03.028Z,17.20
2018-07-24T13:31:32.220Z,17.63
2018-07-24T13:34:00.846Z,17.37
2018-07-24T13:36:29.380Z,17.95
2018-07-24T13:38:57.965Z,17.35
2018-07-24T13:41:26.459Z,17.45
2018-07-24T13:43:55.138Z,17.06
2018-07-24T13:46:23.955Z,17.05
2018-07-24T13:48:52.569Z,18.00
2018-07-24T13:51:21.194Z,16.96
2018-07-24T13:53:49.953Z,17.66
2018-07-24T13:56:18.620Z,17.60
2018-07-24T13:58:47.373Z,17.39
2018-07-24T14:01:16.005Z,17.40
2018-07-24T14:03:44.712Z,17.07
2018-07-24T14:06:13.568Z,17.20
2018-07-24T14:08:42.357Z,16.94
2018-07-24T14:11:11.082Z,17.80
2018-07-24T14:13:39.765Z,17.51
2018-07-24T14:16:08.259Z,16.96
2018-07-24T14:18:36.846Z,17.60
2018-07-24T14:21:05.362Z,16.83
2018-07-24T14:23:33.806Z,17.14
2018-07-24T14:26:02.341Z,17.73
2018-07-24T14:28:30.886Z,17.64
2018-07-24T14:30:59.496Z,17.54
2018-07-24T14:33:28.216Z,17.95
2018-07-24T14:35:56.689Z,17.62
2018-07-24T14:38:25.303Z,17.99
2018-07-24T14:40:53.772Z,17.80
2018-07-24T14:43:22.363Z,18.44
2018-07-24T14:45:50.886Z,18.16
2018-07-24T14:48:19.705Z,17.57
2018-07-24T14:50:48.235Z,17.95
2018-07-24T14:53:17.143Z,18.55
2018-07-24T14:55:45.657Z,18.41
2018-07-24T14:58:14.497Z,18.57
2018-07-24T15:00:43.050Z,17.83
2018-07-24T15:03:11.667Z,17.72
2018-07-24T15:05:40.284Z,18.53
2018-07-24T15:08:08.881Z,17.90
2018-07-24T15:10:37.588Z,18.15
2018-07-24T15:13:06.509Z,18.68
2018-07-24T15:15:35.029Z,18.80
2018-07-24T15:18:03.671Z,18.63
2018-07-24T15:20:32.261Z,18.52
2018-07-24T15:23:01.091Z,18.79
2018-07-24T15:25:29.808Z,18.41
2018-07-24T15:27:58.369Z,19.12
2018-07-24T15:30:26.938Z,18.83
2018-07-24T15:32:56.673Z,19.35
2018-07-24T15:35:25.350Z,18.98
2018-07-24T15:37:54.072Z,19.30
2018-07-24T15:40:22.859Z,19.28
2018-07-24T15:42:51.525Z,19.51
2018-07-24T15:45:20.502Z,18.59
2018-07-24T15:47:49.312Z,19.14
2018-07-24T15:50:19.017Z,19.16
2018-07-24T15:52:47.864Z,19.00
2018-07-24T15:55:16.681Z,19.21
2018-07-24T15:57:45.648Z,19.18
2018-07-24T16:00:14.542Z,19.42
2018-07-24T16:02:43.394Z,19.18
2018-07-24T16:05:12.294Z,19.54
2018-07-24T16:07:41.061Z,20.02
2018-07-24T16:10:09.818Z,19.27
2018-07-24T16:12:38.735Z,19.34
2018-07-24T16:15:07.647Z,19.74
2018-07-24T16:17:36.495Z,19.26
2018-07-24T16:20:05.633Z,19.65
2018-07-24T16:22:34.276Z,19.46
2018-07-24T16:25:03.002Z,20.20
2018-07-24T16:27:31.646Z,20.37
2018-07-24T16:30:00.433Z,20.16
2018-07-24T16:32:29.212Z,19.89
2018-07-24T16:34:57.777Z,20.02
2018-07-24T16:37:26.340Z,19.58
2018-07-24T16:39:55.105Z,20.10
2018-07-24T16:42:23.881Z,20.48
2018-07-24T16:44:52.520Z,20.24
2018-07-24T16:47:21.360Z,20.59
2018-07-24T16:49:49.954Z,19.89
2018-07-24T16:52:18.495Z,20.26
2018-07-24T16:54:47.163Z,19.79
2018-07-24T16:57:15.775Z,19.85
2018-07-24T16:59:44.946Z,19.77
2018-07-24T17:02:13.630Z,20.36
2018-07-24T17:04:42.270Z,20.02
2018-07-24T17:07:10.894Z,20.57
2018-07-24T17:09:39.720Z,20.62
2018-07-24T17:12:08.268Z,20.74
2018-07-24T17:14:37.252Z,20.10
2018-07-24T17:17:05.851Z,20.66
2018-07-24T17:19:36.810Z,20.68
2018-07-24T17:22:05.648Z,20.82
2018-07-24T17:24:34.279Z,21.49
2018-07-24T17:27:02.848Z,21.58
2018-07-24T17:29:31.681Z,21.44
2018-07-24T17:32:00.846Z,21.29
2018-07-24T17:34:29.998Z,21.79
2018-07-24T17:36:58.933Z,21.87
2018-07-24T17:39:27.918Z,22.10
2018-07-24T17:41:59.093Z,22.88
2018-07-24T17:44:28.101Z,22.45
2018-07-24T17:46:56.901Z,23.66
2018-07-24T17:49:25.635Z,23.18
2018-07-24T17:51:54.825Z,23.34
2018-07-24T17:54:23.600Z,23.43
2018-07-24T17:56:52.322Z,23.03
2018-07-24T17:59:21.708Z,23.43
2018-07-24T18:01:50.483Z,24.32
2018-07-24T18:04:19.108Z,23.68
2018-07-24T18:06:48.170Z,23.69
2018-07-24T18:09:16.970Z,23.48
2018-07-24T18:11:45.881Z,23.62
2018-07-24T18:14:14.542Z,23.74
2018-07-24T18:16:43.486Z,23.82
2018-07-24T18:19:12.256Z,23.46
2018-07-24T18:21:41.073Z,24.72
2018-07-24T18:24:09.901Z,23.69
2018-07-24T18:26:38.780Z,24.05
2018-07-24T18:29:07.547Z,24.72
2018-07-24T18:31:36.840Z,24.14
2018-07-24T18:34:05.715Z,24.55
2018-07-24T18:36:34.769Z,25.44
2018-07-24T18:39:03.650Z,25.26
2018-07-24T18:41:32.567Z,25.38
2018-07-24T18:44:01.469Z,25.64
2018-07-24T18:46:30.198Z,25.26
2018-07-24T18:48:58.944Z,25.80
2018-07-24T18:51:28.013Z,26.47
2018-07-24T18:53:57.185Z,26.75
2018-07-24T18:56:25.889Z,26.07
2018-07-24T18:58:54.589Z,26.57
2018-07-24T19:01:23.239Z,27.00
2018-07-24T19:03:51.882Z,26.38
2018-07-24T19:06:20.576Z,27.22
2018-07-24T19:08:49.289Z,26.54
2018-07-24T19:11:18.042Z,27.14
2018-07-24T19:13:46.671Z,27.12
2018-07-24T19:16:15.778Z,27.67
2018-07-24T19:18:44.333Z,27.60
2018-07-24T19:21:13.706Z,26.78
2018-07-24T19:23:42.441Z,28.22
2018-07-24T19:26:11.242Z,27.87
2018-07-24T19:28:39.837Z,27.79
2018-07-24T19:31:08.466Z,28.61
2018-07-24T19:33:37.067Z,28.38
2018-07-24T19:36:05.687Z,28.37
2018-07-24T19:38:34.156Z,28.47
2018-07-24T19:41:02.799Z,28.52
2018-07-24T19:43:31.364Z,28.99
2018-07-24T19:45:59.984Z,28.93
2018-07-24T19:48:28.652Z,29.03
2018-07-24T19:50:57.200Z,29.40
2018-07-24T19:53:25.781Z,29.16
2018-07-24T19:55:54.404Z,29.20
2018-07-24T19:58:22.827Z,29.55
2018-07-24T20:00:51.342Z,30.01
2018-07-24T20:03:20.047Z,30.48
2018-07-24T20:05:48.769Z,30.50
2018-07-24T20:08:17.316Z,30.96
2018-07-24T20:10:46.020Z,31.21
2018-07-24T20:13:14.607Z,31.45
2018-07-24T20:15:43.399Z,31.58
2018-07-24T20:18:11.952Z,31.70
2018-07-24T20:20:40.544Z,32.00
2018-07-24T20:23:09.175Z,31.89
2018-07-24T20:25:38.065Z,32.33
2018-07-24T20:28:06.659Z,31.66
2018-07-24T20:30:35.355Z,32.97
2018-07-24T20:33:04.270Z,32.84
2018-07-24T20:35:32.973Z,33.10
2018-07-24T20:38:01.509Z,32.81
2018-07-24T20:40:30.080Z,33.48
2018-07-24T20:42:58.772Z,33.51
2018-07-24T20:45:27.504Z,32.80
2018-07-24T20:47:56.289Z,32.93
2018-07-24T20:50:24.918Z,33.75
2018-07-24T20:52:53.615Z,33.98
2018-07-24T20:55:22.287Z,32.83
2018-07-24T20:57:51.107Z,33.62
2018-07-24T21:00:20.340Z,33.03
2018-07-24T21:02:49.096Z,33.87
2018-07-24T21:05:18.007Z,33.49
2018-07-24T21:07:46.791Z,33.53
2018-07-24T21:10:18.469Z,33.33
2018-07-24T21:12:48.131Z,34.34
2018-07-24T21:15:17.562Z,34.67
2018-07-24T21:17:46.316Z,35.11
2018-07-24T21:20:14.917Z,34.47
2018-07-24T21:22:43.659Z,35.35
2018-07-24T21:25:12.376Z,35.07
2018-07-24T21:27:41.031Z,34.60
2018-07-24T21:30:10.344Z,34.70
2018-07-24T21:32:39.012Z,35.32
2018-07-24T21:35:07.661Z,34.58
2018-07-24T21:37:36.299Z,34.64
2018-07-24T21:40:05.120Z,34.75
2018-07-24T21:42:33.762Z,35.77
2018-07-24T21:45:02.336Z,35.68
2018-07-24T21:47:30.914Z,34.96
2018-07-24T21:49:59.538Z,35.35
2018-07-24T21:52:28.079Z,35.66
2018-07-24T21:54:56.681Z,34.92
2018-07-24T21:57:25.240Z,35.45
2018-07-24T21:59:53.840Z,35.94
2018-07-24T22:02:22.446Z,35.37
2018-07-24T22:04:50.955Z,36.03
2018-07-24T22:07:19.568Z,35.56
2018-07-24T22:09:48.140Z,35.56
2018-07-24T22:12:16.783Z,35.40
2018-07-24T22:14:45.297Z,35.53
2018-07-24T22:17:13.852Z,36.19
2018-07-24T22:19:42.428Z,36.61
2018-07-24T22:22:10.999Z,36.67
2018-07-24T22:24:39.560Z,37.04
2018-07-24T22:27:08.063Z,36.20
2018-07-24T22:29:36.589Z,36.95
2018-07-24T22:32:05.164Z,36.25
2018-07-24T22:34:33.739Z,37.51
2018-07-24T22:37:02.356Z,37.30
2018-07-24T22:39:30.855Z,36.71
2018-07-24T22:41:59.423Z,37.22
2018-07-24T22:44:27.975Z,37.27
2018-07-24T22:46:56.534Z,36.46
2018-07-24T22:49:25.364Z,37.59
2018-07-24T22:51:53.883Z,36.59
2018-07-24T22:54:22.397Z,36.48
2018-07-24T22:56:50.966Z,37.46
2018-07-24T22:59:19.548Z,38.53
2018-07-24T23:01:48.070Z,37.56
2018-07-24T23:04:16.602Z,37.40
2018-07-24T23:06:45.171Z,37.47
2018-07-24T23:09:13.738Z,38.58
2018-07-24T23:11:42.255Z,38.16
2018-07-24T23:14:10.869Z,38.84
2018-07-24T23:16:39.455Z,38.16
2018-07-24T23:19:07.980Z,38.79
2018-07-24T23:21:36.602Z,38.64
2018-07-24T23:24:05.258Z,38.92
2018-07-24T23:26:33.823Z,39.16
2018-07-24T23:29:02.531Z,39.30
2018-07-24T23:31:31.118Z,39.21
2018-07-24T23:33:59.658Z,40.33
2018-07-24T23:36:28.261Z,39.47
2018-07-24T23:38:56.809Z,39.33
2018-07-24T23:41:25.337Z,39.63
2018-07-24T23:43:53.860Z,40.51
2018-07-24T23:46:22.390Z,40.43
2018-07-24T23:48:50.924Z,40.22
2018-07-24T23:51:19.428Z,40.83
2018-07-24T23:53:47.976Z,41.14
2018-07-24T23:56:16.563Z,40.37
2018-07-24T23:58:45.089Z,41.16
